sensor_id;sensor_type;location;lat;lon;timestamp;P1;durP1;ratioP1;P2;durP2;ratioP2
42586;SDS011;28216;53.362;-6.288;2023-07-09T00:00:06;10.38;;;3.00;;
42586;SDS011;28216;53.362;-6.288;2023-07-09T00:02:39;8.10;;;3.00;;
42586;SDS011;28216;53.362;-6.288;2023-07-09T00:05:04;9.02;;;2.92;;
42586;SDS011;28216;53.362;-6.288;2023-07-09T00:07:33;12.15;;;2.55;;
42586;SDS011;28216;53.362;-6.288;2023-07-09T00:09:59;10.05;;;2.53;;
42586;SDS011;28216;53.362;-6.288;2023-07-09T00:12:25;10.15;;;2.78;;
42586;SDS011;28216;53.362;-6.288;2023-07-09T00:14:51;11.70;;;3.08;;
42586;SDS011;28216;53.362;-6.288;2023-07-09T00:17:27;6.65;;;2.65;;
42586;SDS011;28216;53.362;-6.288;2023-07-09T00:19:55;7.47;;;2.60;;
42586;SDS011;28216;53.362;-6.288;2023-07-09T00:22:21;6.63;;;1.95;;
42586;SDS011;28216;53.362;-6.288;2023-07-09T00:24:49;8.80;;;1.80;;
42586;SDS011;28216;53.362;-6.288;2023-07-09T00:27:19;6.47;;;1.90;;
42586;SDS011;28216;53.362;-6.288;2023-07-09T00:29:47;10.30;;;4.30;;
42586;SDS011;28216;53.362;-6.288;2023-07-09T00:32:15;8.57;;;3.40;;
42586;SDS011;28216;53.362;-6.288;2023-07-09T00:34:45;6.45;;;2.28;;
42586;SDS011;28216;53.362;-6.288;2023-07-09T00:37:16;12.48;;;2.30;;
42586;SDS011;28216;53.362;-6.288;2023-07-09T00:39:43;7.63;;;2.25;;
42586;SDS011;28216;53.362;-6.288;2023-07-09T00:42:21;7.40;;;2.15;;
42586;SDS011;28216;53.362;-6.288;2023-07-09T00:44:52;6.38;;;2.05;;
42586;SDS011;28216;53.362;-6.288;2023-07-09T00:50:42;9.50;;;2.70;;
42586;SDS011;28216;53.362;-6.288;2023-07-09T00:53:13;12.48;;;2.60;;
42586;SDS011;28216;53.362;-6.288;2023-07-09T00:55:47;9.80;;;2.58;;
42586;SDS011;28216;53.362;-6.288;2023-07-09T00:58:18;7.53;;;2.25;;
42586;SDS011;28216;53.362;-6.288;2023-07-09T01:00:47;7.80;;;2.42;;
42586;SDS011;28216;53.362;-6.288;2023-07-09T01:03:20;10.13;;;2.72;;
42586;SDS011;28216;53.362;-6.288;2023-07-09T01:05:54;9.15;;;2.50;;
42586;SDS011;28216;53.362;-6.288;2023-07-09T01:08:22;7.03;;;2.60;;
42586;SDS011;28216;53.362;-6.288;2023-07-09T01:10:48;9.65;;;2.50;;
42586;SDS011;28216;53.362;-6.288;2023-07-09T01:13:14;9.18;;;2.70;;
42586;SDS011;28216;53.362;-6.288;2023-07-09T01:15:41;6.40;;;2.22;;
42586;SDS011;28216;53.362;-6.288;2023-07-09T01:18:07;8.35;;;2.60;;
42586;SDS011;28216;53.362;-6.288;2023-07-09T01:20:35;11.63;;;2.58;;
42586;SDS011;28216;53.362;-6.288;2023-07-09T01:23:03;10.10;;;2.83;;
42586;SDS011;28216;53.362;-6.288;2023-07-09T01:25:29;7.35;;;2.45;;
42586;SDS011;28216;53.362;-6.288;2023-07-09T01:27:55;11.15;;;2.60;;
42586;SDS011;28216;53.362;-6.288;2023-07-09T01:32:55;9.73;;;2.50;;
42586;SDS011;28216;53.362;-6.288;2023-07-09T01:35:23;7.60;;;2.53;;
42586;SDS011;28216;53.362;-6.288;2023-07-09T01:37:51;7.57;;;2.33;;
42586;SDS011;28216;53.362;-6.288;2023-07-09T01:40:18;7.72;;;1.90;;
42586;SDS011;28216;53.362;-6.288;2023-07-09T01:42:45;9.38;;;2.35;;
42586;SDS011;28216;53.362;-6.288;2023-07-09T01:45:11;6.32;;;1.98;;
42586;SDS011;28216;53.362;-6.288;2023-07-09T01:47:38;6.68;;;2.42;;
42586;SDS011;28216;53.362;-6.288;2023-07-09T01:50:05;11.98;;;3.13;;
42586;SDS011;28216;53.362;-6.288;2023-07-09T01:52:31;6.25;;;2.35;;
42586;SDS011;28216;53.362;-6.288;2023-07-09T01:54:58;6.50;;;2.00;;
42586;SDS011;28216;53.362;-6.288;2023-07-09T01:57:26;7.03;;;2.20;;
42586;SDS011;28216;53.362;-6.288;2023-07-09T01:59:58;7.93;;;2.08;;
42586;SDS011;28216;53.362;-6.288;2023-07-09T02:02:25;7.45;;;2.58;;
42586;SDS011;28216;53.362;-6.288;2023-07-09T02:04:53;8.98;;;2.13;;
42586;SDS011;28216;53.362;-6.288;2023-07-09T02:07:21;8.63;;;2.45;;
42586;SDS011;28216;53.362;-6.288;2023-07-09T02:09:48;6.15;;;2.15;;
42586;SDS011;28216;53.362;-6.288;2023-07-09T02:12:14;10.48;;;3.40;;
42586;SDS011;28216;53.362;-6.288;2023-07-09T02:14:40;8.73;;;2.58;;
42586;SDS011;28216;53.362;-6.288;2023-07-09T02:17:07;6.97;;;2.58;;
42586;SDS011;28216;53.362;-6.288;2023-07-09T02:19:33;8.02;;;2.55;;
42586;SDS011;28216;53.362;-6.288;2023-07-09T02:21:59;7.25;;;2.92;;
42586;SDS011;28216;53.362;-6.288;2023-07-09T02:24:24;9.13;;;2.90;;
42586;SDS011;28216;53.362;-6.288;2023-07-09T02:26:52;10.18;;;2.90;;
42586;SDS011;28216;53.362;-6.288;2023-07-09T02:29:18;11.00;;;2.70;;
42586;SDS011;28216;53.362;-6.288;2023-07-09T02:31:44;7.90;;;2.80;;
42586;SDS011;28216;53.362;-6.288;2023-07-09T02:34:10;8.40;;;2.92;;
42586;SDS011;28216;53.362;-6.288;2023-07-09T02:36:35;7.90;;;2.50;;
42586;SDS011;28216;53.362;-6.288;2023-07-09T02:39:01;10.85;;;2.65;;
42586;SDS011;28216;53.362;-6.288;2023-07-09T02:41:26;9.10;;;2.55;;
42586;SDS011;28216;53.362;-6.288;2023-07-09T02:43:52;11.43;;;2.40;;
42586;SDS011;28216;53.362;-6.288;2023-07-09T02:46:17;13.68;;;2.90;;
42586;SDS011;28216;53.362;-6.288;2023-07-09T02:48:42;11.20;;;2.67;;
42586;SDS011;28216;53.362;-6.288;2023-07-09T02:51:08;11.98;;;2.90;;
42586;SDS011;28216;53.362;-6.288;2023-07-09T02:53:33;14.77;;;2.90;;
42586;SDS011;28216;53.362;-6.288;2023-07-09T02:55:59;16.23;;;2.72;;
42586;SDS011;28216;53.362;-6.288;2023-07-09T02:58:24;8.88;;;2.67;;
42586;SDS011;28216;53.362;-6.288;2023-07-09T03:00:50;14.48;;;2.60;;
42586;SDS011;28216;53.362;-6.288;2023-07-09T03:03:19;11.68;;;2.60;;
42586;SDS011;28216;53.362;-6.288;2023-07-09T03:05:46;15.95;;;2.97;;
42586;SDS011;28216;53.362;-6.288;2023-07-09T03:08:12;13.40;;;2.90;;
42586;SDS011;28216;53.362;-6.288;2023-07-09T03:10:38;10.60;;;2.83;;
42586;SDS011;28216;53.362;-6.288;2023-07-09T03:13:03;10.45;;;2.75;;
42586;SDS011;28216;53.362;-6.288;2023-07-09T03:15:30;14.60;;;2.90;;
42586;SDS011;28216;53.362;-6.288;2023-07-09T03:17:56;12.77;;;2.60;;
42586;SDS011;28216;53.362;-6.288;2023-07-09T03:20:21;12.25;;;2.80;;
42586;SDS011;28216;53.362;-6.288;2023-07-09T03:22:47;11.73;;;2.55;;
42586;SDS011;28216;53.362;-6.288;2023-07-09T03:25:12;13.52;;;2.58;;
42586;SDS011;28216;53.362;-6.288;2023-07-09T03:27:38;13.13;;;2.78;;
42586;SDS011;28216;53.362;-6.288;2023-07-09T03:30:04;11.25;;;2.85;;
42586;SDS011;28216;53.362;-6.288;2023-07-09T03:32:30;18.70;;;3.45;;
42586;SDS011;28216;53.362;-6.288;2023-07-09T03:34:55;17.65;;;3.38;;
42586;SDS011;28216;53.362;-6.288;2023-07-09T03:37:21;16.13;;;2.80;;
42586;SDS011;28216;53.362;-6.288;2023-07-09T03:39:46;11.70;;;3.08;;
42586;SDS011;28216;53.362;-6.288;2023-07-09T03:42:12;12.85;;;3.05;;
42586;SDS011;28216;53.362;-6.288;2023-07-09T03:44:37;9.20;;;3.08;;
42586;SDS011;28216;53.362;-6.288;2023-07-09T03:47:03;12.52;;;2.90;;
42586;SDS011;28216;53.362;-6.288;2023-07-09T03:49:29;12.73;;;3.10;;
42586;SDS011;28216;53.362;-6.288;2023-07-09T03:51:56;9.18;;;2.92;;
42586;SDS011;28216;53.362;-6.288;2023-07-09T03:54:22;12.85;;;2.90;;
42586;SDS011;28216;53.362;-6.288;2023-07-09T03:56:47;17.83;;;3.97;;
42586;SDS011;28216;53.362;-6.288;2023-07-09T03:59:13;11.82;;;3.58;;
42586;SDS011;28216;53.362;-6.288;2023-07-09T04:01:38;11.98;;;3.35;;
42586;SDS011;28216;53.362;-6.288;2023-07-09T04:04:04;12.02;;;3.40;;
42586;SDS011;28216;53.362;-6.288;2023-07-09T04:06:29;14.02;;;3.47;;
42586;SDS011;28216;53.362;-6.288;2023-07-09T04:08:55;12.50;;;3.60;;
42586;SDS011;28216;53.362;-6.288;2023-07-09T04:11:20;12.52;;;3.92;;
42586;SDS011;28216;53.362;-6.288;2023-07-09T04:13:46;13.65;;;3.85;;
42586;SDS011;28216;53.362;-6.288;2023-07-09T04:16:11;11.68;;;3.72;;
42586;SDS011;28216;53.362;-6.288;2023-07-09T04:18:37;15.50;;;3.90;;
42586;SDS011;28216;53.362;-6.288;2023-07-09T04:21:02;15.00;;;3.50;;
42586;SDS011;28216;53.362;-6.288;2023-07-09T04:23:28;18.70;;;4.10;;
42586;SDS011;28216;53.362;-6.288;2023-07-09T04:25:54;16.67;;;3.95;;
42586;SDS011;28216;53.362;-6.288;2023-07-09T04:28:19;11.40;;;3.42;;
42586;SDS011;28216;53.362;-6.288;2023-07-09T04:30:47;12.70;;;3.75;;
42586;SDS011;28216;53.362;-6.288;2023-07-09T04:33:17;9.25;;;3.53;;
42586;SDS011;28216;53.362;-6.288;2023-07-09T04:35:44;14.70;;;3.90;;
42586;SDS011;28216;53.362;-6.288;2023-07-09T04:38:11;16.33;;;3.85;;
42586;SDS011;28216;53.362;-6.288;2023-07-09T04:40:37;15.25;;;3.47;;
42586;SDS011;28216;53.362;-6.288;2023-07-09T04:43:02;15.45;;;3.53;;
42586;SDS011;28216;53.362;-6.288;2023-07-09T04:45:27;14.93;;;4.28;;
42586;SDS011;28216;53.362;-6.288;2023-07-09T04:47:53;18.55;;;4.03;;
42586;SDS011;28216;53.362;-6.288;2023-07-09T04:50:18;12.23;;;3.72;;
42586;SDS011;28216;53.362;-6.288;2023-07-09T04:52:44;13.48;;;3.60;;
42586;SDS011;28216;53.362;-6.288;2023-07-09T04:55:12;15.73;;;3.65;;
42586;SDS011;28216;53.362;-6.288;2023-07-09T04:57:37;13.57;;;3.47;;
42586;SDS011;28216;53.362;-6.288;2023-07-09T05:00:03;12.77;;;3.83;;
42586;SDS011;28216;53.362;-6.288;2023-07-09T05:02:30;14.43;;;3.95;;
42586;SDS011;28216;53.362;-6.288;2023-07-09T05:04:56;16.88;;;3.78;;
42586;SDS011;28216;53.362;-6.288;2023-07-09T05:07:21;14.43;;;3.90;;
42586;SDS011;28216;53.362;-6.288;2023-07-09T05:09:47;16.17;;;3.40;;
42586;SDS011;28216;53.362;-6.288;2023-07-09T05:12:13;17.10;;;3.60;;
42586;SDS011;28216;53.362;-6.288;2023-07-09T05:14:39;14.52;;;3.75;;
42586;SDS011;28216;53.362;-6.288;2023-07-09T05:17:05;17.27;;;3.95;;
42586;SDS011;28216;53.362;-6.288;2023-07-09T05:19:31;21.05;;;4.88;;
42586;SDS011;28216;53.362;-6.288;2023-07-09T05:21:57;16.10;;;3.85;;
42586;SDS011;28216;53.362;-6.288;2023-07-09T05:24:25;11.48;;;3.60;;
42586;SDS011;28216;53.362;-6.288;2023-07-09T05:26:50;18.92;;;4.00;;
42586;SDS011;28216;53.362;-6.288;2023-07-09T05:29:16;13.45;;;3.60;;
42586;SDS011;28216;53.362;-6.288;2023-07-09T05:31:43;18.63;;;3.97;;
42586;SDS011;28216;53.362;-6.288;2023-07-09T05:34:09;14.23;;;3.85;;
42586;SDS011;28216;53.362;-6.288;2023-07-09T05:36:34;17.63;;;4.50;;
42586;SDS011;28216;53.362;-6.288;2023-07-09T05:39:00;12.68;;;3.42;;
42586;SDS011;28216;53.362;-6.288;2023-07-09T05:41:25;9.90;;;3.20;;
42586;SDS011;28216;53.362;-6.288;2023-07-09T05:43:51;13.77;;;3.25;;
42586;SDS011;28216;53.362;-6.288;2023-07-09T05:46:17;15.48;;;3.10;;
42586;SDS011;28216;53.362;-6.288;2023-07-09T05:48:43;11.07;;;3.00;;
42586;SDS011;28216;53.362;-6.288;2023-07-09T05:51:09;8.10;;;2.90;;
42586;SDS011;28216;53.362;-6.288;2023-07-09T05:53:34;11.10;;;2.95;;
42586;SDS011;28216;53.362;-6.288;2023-07-09T05:56:00;13.48;;;3.05;;
42586;SDS011;28216;53.362;-6.288;2023-07-09T05:58:26;12.05;;;3.25;;
42586;SDS011;28216;53.362;-6.288;2023-07-09T06:00:52;17.23;;;3.30;;
42586;SDS011;28216;53.362;-6.288;2023-07-09T06:03:19;13.02;;;3.17;;
42586;SDS011;28216;53.362;-6.288;2023-07-09T06:05:46;14.68;;;3.28;;
42586;SDS011;28216;53.362;-6.288;2023-07-09T06:08:14;11.88;;;3.03;;
42586;SDS011;28216;53.362;-6.288;2023-07-09T06:10:49;11.38;;;3.40;;
42586;SDS011;28216;53.362;-6.288;2023-07-09T06:13:19;13.80;;;3.03;;
42586;SDS011;28216;53.362;-6.288;2023-07-09T06:15:47;9.50;;;3.58;;
42586;SDS011;28216;53.362;-6.288;2023-07-09T06:18:13;11.07;;;2.88;;
42586;SDS011;28216;53.362;-6.288;2023-07-09T06:20:38;11.25;;;2.83;;
42586;SDS011;28216;53.362;-6.288;2023-07-09T06:23:04;11.82;;;2.78;;
42586;SDS011;28216;53.362;-6.288;2023-07-09T06:25:29;15.23;;;3.70;;
42586;SDS011;28216;53.362;-6.288;2023-07-09T06:27:55;9.18;;;2.67;;
42586;SDS011;28216;53.362;-6.288;2023-07-09T06:30:22;9.95;;;2.60;;
42586;SDS011;28216;53.362;-6.288;2023-07-09T06:32:47;11.32;;;2.70;;
42586;SDS011;28216;53.362;-6.288;2023-07-09T06:35:13;12.15;;;2.88;;
42586;SDS011;28216;53.362;-6.288;2023-07-09T06:37:38;9.70;;;2.80;;
42586;SDS011;28216;53.362;-6.288;2023-07-09T06:40:04;8.73;;;2.72;;
42586;SDS011;28216;53.362;-6.288;2023-07-09T06:42:32;10.65;;;2.90;;
42586;SDS011;28216;53.362;-6.288;2023-07-09T06:44:57;11.20;;;2.80;;
42586;SDS011;28216;53.362;-6.288;2023-07-09T06:47:23;11.55;;;3.03;;
42586;SDS011;28216;53.362;-6.288;2023-07-09T06:49:48;9.05;;;2.83;;
42586;SDS011;28216;53.362;-6.288;2023-07-09T06:52:14;11.82;;;3.03;;
42586;SDS011;28216;53.362;-6.288;2023-07-09T06:54:39;7.80;;;2.85;;
42586;SDS011;28216;53.362;-6.288;2023-07-09T06:57:05;9.23;;;2.80;;
42586;SDS011;28216;53.362;-6.288;2023-07-09T06:59:30;10.50;;;2.92;;
42586;SDS011;28216;53.362;-6.288;2023-07-09T07:01:56;10.15;;;2.63;;
42586;SDS011;28216;53.362;-6.288;2023-07-09T07:04:21;8.65;;;2.90;;
42586;SDS011;28216;53.362;-6.288;2023-07-09T07:06:47;13.82;;;3.10;;
42586;SDS011;28216;53.362;-6.288;2023-07-09T07:09:15;12.43;;;3.22;;
42586;SDS011;28216;53.362;-6.288;2023-07-09T07:11:40;10.55;;;2.90;;
42586;SDS011;28216;53.362;-6.288;2023-07-09T07:14:06;16.00;;;3.30;;
42586;SDS011;28216;53.362;-6.288;2023-07-09T07:16:31;17.70;;;2.83;;
42586;SDS011;28216;53.362;-6.288;2023-07-09T07:18:57;14.40;;;3.25;;
42586;SDS011;28216;53.362;-6.288;2023-07-09T07:21:22;11.57;;;3.45;;
42586;SDS011;28216;53.362;-6.288;2023-07-09T07:23:48;14.70;;;3.58;;
42586;SDS011;28216;53.362;-6.288;2023-07-09T07:26:13;13.73;;;3.35;;
42586;SDS011;28216;53.362;-6.288;2023-07-09T07:28:39;14.50;;;3.20;;
42586;SDS011;28216;53.362;-6.288;2023-07-09T07:31:05;15.38;;;3.63;;
42586;SDS011;28216;53.362;-6.288;2023-07-09T07:33:33;12.02;;;3.33;;
42586;SDS011;28216;53.362;-6.288;2023-07-09T07:35:59;19.77;;;3.80;;
42586;SDS011;28216;53.362;-6.288;2023-07-09T07:38:24;17.90;;;4.00;;
42586;SDS011;28216;53.362;-6.288;2023-07-09T07:40:50;21.90;;;3.85;;
42586;SDS011;28216;53.362;-6.288;2023-07-09T07:43:16;15.95;;;3.67;;
42586;SDS011;28216;53.362;-6.288;2023-07-09T07:45:42;19.13;;;4.80;;
42586;SDS011;28216;53.362;-6.288;2023-07-09T07:48:08;23.17;;;4.13;;
42586;SDS011;28216;53.362;-6.288;2023-07-09T07:50:34;23.77;;;4.63;;
42586;SDS011;28216;53.362;-6.288;2023-07-09T07:53:00;20.23;;;4.30;;
42586;SDS011;28216;53.362;-6.288;2023-07-09T07:55:26;20.52;;;4.10;;
42586;SDS011;28216;53.362;-6.288;2023-07-09T07:57:52;13.98;;;3.45;;
42586;SDS011;28216;53.362;-6.288;2023-07-09T08:00:18;13.18;;;3.28;;
42586;SDS011;28216;53.362;-6.288;2023-07-09T08:02:44;16.45;;;3.42;;
42586;SDS011;28216;53.362;-6.288;2023-07-09T08:05:10;14.75;;;4.13;;
42586;SDS011;28216;53.362;-6.288;2023-07-09T08:07:35;19.17;;;4.70;;
42586;SDS011;28216;53.362;-6.288;2023-07-09T08:10:01;14.93;;;4.32;;
42586;SDS011;28216;53.362;-6.288;2023-07-09T08:12:27;19.45;;;5.00;;
42586;SDS011;28216;53.362;-6.288;2023-07-09T08:14:52;19.45;;;4.28;;
42586;SDS011;28216;53.362;-6.288;2023-07-09T08:17:17;18.00;;;4.50;;
42586;SDS011;28216;53.362;-6.288;2023-07-09T08:19:47;15.70;;;4.30;;
42586;SDS011;28216;53.362;-6.288;2023-07-09T08:22:15;19.55;;;4.65;;
42586;SDS011;28216;53.362;-6.288;2023-07-09T08:24:41;18.45;;;4.25;;
42586;SDS011;28216;53.362;-6.288;2023-07-09T08:27:07;22.83;;;4.75;;
42586;SDS011;28216;53.362;-6.288;2023-07-09T08:29:33;17.55;;;4.15;;
42586;SDS011;28216;53.362;-6.288;2023-07-09T08:31:59;21.17;;;4.07;;
42586;SDS011;28216;53.362;-6.288;2023-07-09T08:34:24;16.65;;;3.67;;
42586;SDS011;28216;53.362;-6.288;2023-07-09T08:36:50;16.45;;;4.07;;
42586;SDS011;28216;53.362;-6.288;2023-07-09T08:39:15;16.92;;;4.07;;
42586;SDS011;28216;53.362;-6.288;2023-07-09T08:41:45;18.83;;;3.95;;
42586;SDS011;28216;53.362;-6.288;2023-07-09T08:50:11;15.93;;;3.30;;
42586;SDS011;28216;53.362;-6.288;2023-07-09T08:52:43;11.73;;;2.70;;
42586;SDS011;28216;53.362;-6.288;2023-07-09T08:57:51;11.10;;;2.72;;
42586;SDS011;28216;53.362;-6.288;2023-07-09T09:00:31;10.95;;;2.92;;
42586;SDS011;28216;53.362;-6.288;2023-07-09T09:03:07;8.70;;;2.38;;
42586;SDS011;28216;53.362;-6.288;2023-07-09T09:05:41;7.03;;;2.22;;
42586;SDS011;28216;53.362;-6.288;2023-07-09T09:10:40;8.18;;;2.05;;
42586;SDS011;28216;53.362;-6.288;2023-07-09T09:13:15;7.43;;;2.10;;
42586;SDS011;28216;53.362;-6.288;2023-07-09T09:15:43;5.75;;;1.88;;
42586;SDS011;28216;53.362;-6.288;2023-07-09T09:20:47;7.67;;;2.10;;
42586;SDS011;28216;53.362;-6.288;2023-07-09T09:23:21;5.40;;;1.90;;
42586;SDS011;28216;53.362;-6.288;2023-07-09T09:25:56;6.97;;;2.38;;
42586;SDS011;28216;53.362;-6.288;2023-07-09T09:28:34;5.40;;;1.90;;
42586;SDS011;28216;53.362;-6.288;2023-07-09T09:31:01;8.48;;;1.95;;
42586;SDS011;28216;53.362;-6.288;2023-07-09T09:33:36;7.57;;;2.10;;
42586;SDS011;28216;53.362;-6.288;2023-07-09T09:36:05;7.25;;;2.00;;
42586;SDS011;28216;53.362;-6.288;2023-07-09T09:38:31;7.65;;;2.20;;
42586;SDS011;28216;53.362;-6.288;2023-07-09T09:41:01;8.50;;;2.30;;
42586;SDS011;28216;53.362;-6.288;2023-07-09T09:43:31;5.75;;;2.10;;
42586;SDS011;28216;53.362;-6.288;2023-07-09T09:45:58;7.57;;;2.40;;
42586;SDS011;28216;53.362;-6.288;2023-07-09T09:48:27;8.75;;;2.42;;
42586;SDS011;28216;53.362;-6.288;2023-07-09T09:50:55;10.05;;;2.17;;
42586;SDS011;28216;53.362;-6.288;2023-07-09T09:53:25;10.43;;;2.35;;
42586;SDS011;28216;53.362;-6.288;2023-07-09T09:55:53;8.50;;;2.42;;
42586;SDS011;28216;53.362;-6.288;2023-07-09T09:58:20;7.60;;;2.22;;
42586;SDS011;28216;53.362;-6.288;2023-07-09T10:00:51;9.82;;;2.42;;
42586;SDS011;28216;53.362;-6.288;2023-07-09T10:03:18;10.13;;;2.80;;
42586;SDS011;28216;53.362;-6.288;2023-07-09T10:05:46;13.05;;;2.92;;
42586;SDS011;28216;53.362;-6.288;2023-07-09T10:08:22;11.73;;;2.58;;
42586;SDS011;28216;53.362;-6.288;2023-07-09T10:11:07;9.98;;;2.70;;
42586;SDS011;28216;53.362;-6.288;2023-07-09T10:13:42;9.80;;;3.00;;
42586;SDS011;28216;53.362;-6.288;2023-07-09T10:16:27;8.60;;;2.70;;
42586;SDS011;28216;53.362;-6.288;2023-07-09T10:21:37;11.60;;;2.65;;
42586;SDS011;28216;53.362;-6.288;2023-07-09T10:34:46;7.30;;;2.63;;
42586;SDS011;28216;53.362;-6.288;2023-07-09T10:40:16;8.57;;;2.20;;
42586;SDS011;28216;53.362;-6.288;2023-07-09T10:42:54;8.57;;;2.63;;
42586;SDS011;28216;53.362;-6.288;2023-07-09T10:45:38;8.27;;;3.08;;
42586;SDS011;28216;53.362;-6.288;2023-07-09T10:48:17;7.57;;;2.33;;
42586;SDS011;28216;53.362;-6.288;2023-07-09T10:50:57;6.47;;;2.17;;
42586;SDS011;28216;53.362;-6.288;2023-07-09T10:53:33;3.72;;;1.80;;
42586;SDS011;28216;53.362;-6.288;2023-07-09T11:01:58;7.80;;;2.10;;
42586;SDS011;28216;53.362;-6.288;2023-07-09T11:04:44;10.32;;;2.53;;
42586;SDS011;28216;53.362;-6.288;2023-07-09T11:07:14;8.50;;;3.28;;
42586;SDS011;28216;53.362;-6.288;2023-07-09T11:09:45;8.82;;;2.38;;
42586;SDS011;28216;53.362;-6.288;2023-07-09T11:12:18;6.93;;;2.30;;
42586;SDS011;28216;53.362;-6.288;2023-07-09T11:14:50;8.45;;;2.40;;
42586;SDS011;28216;53.362;-6.288;2023-07-09T11:17:20;8.23;;;2.15;;
42586;SDS011;28216;53.362;-6.288;2023-07-09T11:19:48;11.35;;;2.45;;
42586;SDS011;28216;53.362;-6.288;2023-07-09T11:22:22;7.22;;;2.40;;
42586;SDS011;28216;53.362;-6.288;2023-07-09T11:24:50;5.63;;;1.75;;
42586;SDS011;28216;53.362;-6.288;2023-07-09T11:27:50;5.28;;;1.67;;
42586;SDS011;28216;53.362;-6.288;2023-07-09T11:32:45;4.72;;;1.90;;
42586;SDS011;28216;53.362;-6.288;2023-07-09T11:35:19;6.10;;;1.85;;
42586;SDS011;28216;53.362;-6.288;2023-07-09T11:37:46;6.40;;;1.80;;
42586;SDS011;28216;53.362;-6.288;2023-07-09T11:40:12;5.25;;;2.00;;
42586;SDS011;28216;53.362;-6.288;2023-07-09T11:43:24;4.90;;;1.42;;
42586;SDS011;28216;53.362;-6.288;2023-07-09T11:45:50;5.07;;;1.55;;
42586;SDS011;28216;53.362;-6.288;2023-07-09T11:48:26;3.60;;;1.52;;
42586;SDS011;28216;53.362;-6.288;2023-07-09T11:51:19;4.00;;;1.55;;
42586;SDS011;28216;53.362;-6.288;2023-07-09T11:54:19;5.32;;;1.40;;
42586;SDS011;28216;53.362;-6.288;2023-07-09T11:56:58;6.70;;;1.50;;
42586;SDS011;28216;53.362;-6.288;2023-07-09T11:59:26;4.15;;;1.40;;
42586;SDS011;28216;53.362;-6.288;2023-07-09T12:01:52;4.80;;;1.63;;
42586;SDS011;28216;53.362;-6.288;2023-07-09T12:04:20;5.47;;;1.48;;
42586;SDS011;28216;53.362;-6.288;2023-07-09T12:06:49;6.43;;;1.35;;
42586;SDS011;28216;53.362;-6.288;2023-07-09T12:09:29;4.32;;;1.58;;
42586;SDS011;28216;53.362;-6.288;2023-07-09T12:15:04;4.75;;;1.30;;
42586;SDS011;28216;53.362;-6.288;2023-07-09T12:25:00;3.55;;;1.50;;
42586;SDS011;28216;53.362;-6.288;2023-07-09T12:30:52;3.17;;;1.80;;
42586;SDS011;28216;53.362;-6.288;2023-07-09T12:33:52;4.50;;;1.55;;
42586;SDS011;28216;53.362;-6.288;2023-07-09T12:39:50;4.35;;;1.90;;
42586;SDS011;28216;53.362;-6.288;2023-07-09T12:42:22;4.78;;;1.63;;
42586;SDS011;28216;53.362;-6.288;2023-07-09T13:02:54;4.32;;;1.30;;
42586;SDS011;28216;53.362;-6.288;2023-07-09T13:05:24;2.67;;;1.50;;
42586;SDS011;28216;53.362;-6.288;2023-07-09T13:08:40;2.55;;;1.40;;
42586;SDS011;28216;53.362;-6.288;2023-07-09T13:10:40;1.58;;;1.10;;
42586;SDS011;28216;53.362;-6.288;2023-07-09T13:13:10;2.35;;;1.30;;
42586;SDS011;28216;53.362;-6.288;2023-07-09T13:15:39;3.35;;;1.52;;
42586;SDS011;28216;53.362;-6.288;2023-07-09T13:18:08;2.85;;;1.20;;
42586;SDS011;28216;53.362;-6.288;2023-07-09T13:20:38;1.60;;;1.10;;
42586;SDS011;28216;53.362;-6.288;2023-07-09T13:25:43;2.28;;;1.10;;
42586;SDS011;28216;53.362;-6.288;2023-07-09T13:28:17;3.08;;;1.50;;
42586;SDS011;28216;53.362;-6.288;2023-07-09T13:31:16;1.77;;;1.00;;
42586;SDS011;28216;53.362;-6.288;2023-07-09T13:33:42;2.58;;;1.00;;
42586;SDS011;28216;53.362;-6.288;2023-07-09T13:36:08;2.08;;;1.33;;
42586;SDS011;28216;53.362;-6.288;2023-07-09T13:38:35;1.45;;;1.20;;
42586;SDS011;28216;53.362;-6.288;2023-07-09T13:41:10;1.65;;;1.55;;
42586;SDS011;28216;53.362;-6.288;2023-07-09T13:43:37;2.55;;;1.17;;
42586;SDS011;28216;53.362;-6.288;2023-07-09T13:46:06;1.52;;;1.02;;
42586;SDS011;28216;53.362;-6.288;2023-07-09T13:48:33;2.28;;;1.10;;
42586;SDS011;28216;53.362;-6.288;2023-07-09T13:51:00;2.75;;;1.33;;
42586;SDS011;28216;53.362;-6.288;2023-07-09T13:53:28;3.13;;;1.10;;
42586;SDS011;28216;53.362;-6.288;2023-07-09T13:55:56;2.25;;;1.10;;
42586;SDS011;28216;53.362;-6.288;2023-07-09T13:58:24;2.47;;;1.20;;
42586;SDS011;28216;53.362;-6.288;2023-07-09T14:00:55;3.40;;;1.48;;
42586;SDS011;28216;53.362;-6.288;2023-07-09T14:03:30;2.03;;;1.50;;
42586;SDS011;28216;53.362;-6.288;2023-07-09T14:05:57;10.32;;;1.63;;
42586;SDS011;28216;53.362;-6.288;2023-07-09T14:08:23;2.05;;;1.30;;
42586;SDS011;28216;53.362;-6.288;2023-07-09T14:10:49;3.15;;;1.30;;
42586;SDS011;28216;53.362;-6.288;2023-07-09T14:13:15;2.75;;;1.40;;
42586;SDS011;28216;53.362;-6.288;2023-07-09T14:15:43;3.85;;;1.10;;
42586;SDS011;28216;53.362;-6.288;2023-07-09T14:18:12;2.63;;;1.10;;
42586;SDS011;28216;53.362;-6.288;2023-07-09T14:20:39;6.25;;;1.20;;
42586;SDS011;28216;53.362;-6.288;2023-07-09T14:23:05;5.05;;;1.33;;
42586;SDS011;28216;53.362;-6.288;2023-07-09T14:25:33;3.08;;;1.45;;
42586;SDS011;28216;53.362;-6.288;2023-07-09T14:27:58;2.80;;;1.10;;
42586;SDS011;28216;53.362;-6.288;2023-07-09T14:30:24;6.03;;;1.58;;
42586;SDS011;28216;53.362;-6.288;2023-07-09T14:32:51;2.28;;;1.17;;
42586;SDS011;28216;53.362;-6.288;2023-07-09T14:37:45;2.85;;;1.30;;
42586;SDS011;28216;53.362;-6.288;2023-07-09T14:40:12;2.58;;;1.20;;
42586;SDS011;28216;53.362;-6.288;2023-07-09T14:42:38;3.30;;;1.10;;
42586;SDS011;28216;53.362;-6.288;2023-07-09T14:45:05;2.50;;;1.10;;
42586;SDS011;28216;53.362;-6.288;2023-07-09T14:47:41;5.03;;;1.42;;
42586;SDS011;28216;53.362;-6.288;2023-07-09T14:50:07;3.65;;;1.20;;
42586;SDS011;28216;53.362;-6.288;2023-07-09T14:52:32;1.60;;;1.20;;
42586;SDS011;28216;53.362;-6.288;2023-07-09T14:54:58;3.83;;;1.20;;
42586;SDS011;28216;53.362;-6.288;2023-07-09T14:57:24;2.58;;;1.40;;
42586;SDS011;28216;53.362;-6.288;2023-07-09T14:59:52;4.80;;;1.30;;
42586;SDS011;28216;53.362;-6.288;2023-07-09T15:05:05;4.10;;;1.35;;
42586;SDS011;28216;53.362;-6.288;2023-07-09T15:07:36;4.47;;;1.20;;
42586;SDS011;28216;53.362;-6.288;2023-07-09T15:10:02;6.72;;;1.20;;
42586;SDS011;28216;53.362;-6.288;2023-07-09T15:12:33;2.50;;;1.30;;
42586;SDS011;28216;53.362;-6.288;2023-07-09T15:17:44;4.20;;;1.27;;
42586;SDS011;28216;53.362;-6.288;2023-07-09T15:20:13;2.65;;;1.10;;
42586;SDS011;28216;53.362;-6.288;2023-07-09T15:22:44;2.08;;;1.25;;
42586;SDS011;28216;53.362;-6.288;2023-07-09T15:25:15;2.63;;;1.20;;
42586;SDS011;28216;53.362;-6.288;2023-07-09T15:27:44;3.45;;;1.38;;
42586;SDS011;28216;53.362;-6.288;2023-07-09T15:32:43;3.33;;;1.15;;
42586;SDS011;28216;53.362;-6.288;2023-07-09T15:35:09;2.20;;;1.30;;
42586;SDS011;28216;53.362;-6.288;2023-07-09T15:37:34;2.08;;;1.00;;
42586;SDS011;28216;53.362;-6.288;2023-07-09T15:40:00;2.22;;;1.20;;
42586;SDS011;28216;53.362;-6.288;2023-07-09T15:42:26;2.20;;;1.10;;
42586;SDS011;28216;53.362;-6.288;2023-07-09T15:44:51;1.90;;;1.45;;
42586;SDS011;28216;53.362;-6.288;2023-07-09T15:47:17;4.20;;;1.35;;
42586;SDS011;28216;53.362;-6.288;2023-07-09T15:49:45;1.77;;;1.10;;
42586;SDS011;28216;53.362;-6.288;2023-07-09T15:52:10;3.80;;;1.23;;
42586;SDS011;28216;53.362;-6.288;2023-07-09T15:54:36;2.40;;;1.10;;
42586;SDS011;28216;53.362;-6.288;2023-07-09T15:57:01;2.03;;;1.10;;
42586;SDS011;28216;53.362;-6.288;2023-07-09T15:59:29;2.70;;;1.08;;
42586;SDS011;28216;53.362;-6.288;2023-07-09T16:01:57;2.92;;;1.10;;
42586;SDS011;28216;53.362;-6.288;2023-07-09T16:04:23;3.05;;;1.13;;
42586;SDS011;28216;53.362;-6.288;2023-07-09T16:06:50;3.17;;;1.13;;